sensor_id;sensor_type;location;lat;lon;timestamp;temperature;humidity
51559;DHT22;61650;48.882;2.092;2022-11-20T00:00:28;5.60;86.50
51559;DHT22;61650;48.882;2.092;2022-11-20T00:02:54;5.70;86.40
51559;DHT22;61650;48.882;2.092;2022-11-20T00:05:19;5.60;86.50
51559;DHT22;61650;48.882;2.092;2022-11-20T00:07:46;5.60;86.00
51559;DHT22;61650;48.882;2.092;2022-11-20T00:10:11;5.60;86.10
51559;DHT22;61650;48.882;2.092;2022-11-20T00:12:37;5.60;85.90
51559;DHT22;61650;48.882;2.092;2022-11-20T00:15:03;5.50;86.00
51559;DHT22;61650;48.882;2.092;2022-11-20T00:17:29;5.50;86.10
51559;DHT22;61650;48.882;2.092;2022-11-20T00:19:55;5.50;86.10
51559;DHT22;61650;48.882;2.092;2022-11-20T00:22:20;5.40;86.10
51559;DHT22;61650;48.882;2.092;2022-11-20T00:24:46;5.40;86.00
51559;DHT22;61650;48.882;2.092;2022-11-20T00:27:12;5.40;86.20
51559;DHT22;61650;48.882;2.092;2022-11-20T00:29:37;5.30;86.40
51559;DHT22;61650;48.882;2.092;2022-11-20T00:32:03;5.30;86.50
51559;DHT22;61650;48.882;2.092;2022-11-20T00:34:28;5.20;86.70
51559;DHT22;61650;48.882;2.092;2022-11-20T00:36:54;5.10;86.50
51559;DHT22;61650;48.882;2.092;2022-11-20T00:39:19;5.10;86.60
51559;DHT22;61650;48.882;2.092;2022-11-20T00:41:45;5.00;87.00
51559;DHT22;61650;48.882;2.092;2022-11-20T00:44:11;5.00;86.90
51559;DHT22;61650;48.882;2.092;2022-11-20T00:46:36;5.00;86.60
51559;DHT22;61650;48.882;2.092;2022-11-20T00:49:02;5.00;86.70
51559;DHT22;61650;48.882;2.092;2022-11-20T00:51:28;5.00;86.20
51559;DHT22;61650;48.882;2.092;2022-11-20T00:53:57;5.00;86.30
51559;DHT22;61650;48.882;2.092;2022-11-20T00:56:23;5.00;86.40
51559;DHT22;61650;48.882;2.092;2022-11-20T00:58:49;4.90;86.30
51559;DHT22;61650;48.882;2.092;2022-11-20T01:01:17;4.90;85.90
51559;DHT22;61650;48.882;2.092;2022-11-20T01:03:45;4.90;85.70
51559;DHT22;61650;48.882;2.092;2022-11-20T01:06:22;4.90;85.90
51559;DHT22;61650;48.882;2.092;2022-11-20T01:08:49;4.90;85.60
51559;DHT22;61650;48.882;2.092;2022-11-20T01:11:20;4.80;85.70
51559;DHT22;61650;48.882;2.092;2022-11-20T01:13:49;4.80;85.80
51559;DHT22;61650;48.882;2.092;2022-11-20T01:18:50;4.80;85.70
51559;DHT22;61650;48.882;2.092;2022-11-20T01:21:18;4.70;85.70
51559;DHT22;61650;48.882;2.092;2022-11-20T01:23:45;4.70;85.60
51559;DHT22;61650;48.882;2.092;2022-11-20T01:26:13;4.70;85.50
51559;DHT22;61650;48.882;2.092;2022-11-20T01:28:40;4.60;85.60
51559;DHT22;61650;48.882;2.092;2022-11-20T01:31:17;4.60;85.90
51559;DHT22;61650;48.882;2.092;2022-11-20T01:33:44;4.60;85.80
51559;DHT22;61650;48.882;2.092;2022-11-20T01:36:11;4.50;85.90
51559;DHT22;61650;48.882;2.092;2022-11-20T01:38:37;4.40;86.20
51559;DHT22;61650;48.882;2.092;2022-11-20T01:41:02;4.30;86.50
51559;DHT22;61650;48.882;2.092;2022-11-20T01:43:29;4.30;87.00
51559;DHT22;61650;48.882;2.092;2022-11-20T01:46:08;4.20;87.10
51559;DHT22;61650;48.882;2.092;2022-11-20T01:51:23;4.20;86.90
51559;DHT22;61650;48.882;2.092;2022-11-20T01:53:52;4.10;87.20
51559;DHT22;61650;48.882;2.092;2022-11-20T01:56:19;4.10;87.20
51559;DHT22;61650;48.882;2.092;2022-11-20T01:58:48;4.10;87.30
51559;DHT22;61650;48.882;2.092;2022-11-20T02:01:15;4.10;87.10
51559;DHT22;61650;48.882;2.092;2022-11-20T02:03:41;4.10;87.30
51559;DHT22;61650;48.882;2.092;2022-11-20T02:08:57;4.00;87.30
51559;DHT22;61650;48.882;2.092;2022-11-20T02:11:22;4.10;87.90
51559;DHT22;61650;48.882;2.092;2022-11-20T02:13:48;4.20;87.60
51559;DHT22;61650;48.882;2.092;2022-11-20T02:16:25;4.20;86.90
51559;DHT22;61650;48.882;2.092;2022-11-20T02:18:51;4.20;87.50
51559;DHT22;61650;48.882;2.092;2022-11-20T02:21:38;4.30;86.80
51559;DHT22;61650;48.882;2.092;2022-11-20T02:24:14;4.30;86.40
51559;DHT22;61650;48.882;2.092;2022-11-20T02:29:09;4.30;86.30
51559;DHT22;61650;48.882;2.092;2022-11-20T02:31:40;4.40;86.40
51559;DHT22;61650;48.882;2.092;2022-11-20T02:34:07;4.40;86.00
51559;DHT22;61650;48.882;2.092;2022-11-20T02:36:34;4.40;85.90
51559;DHT22;61650;48.882;2.092;2022-11-20T02:39:02;4.30;85.80
51559;DHT22;61650;48.882;2.092;2022-11-20T02:41:36;4.30;86.10
51559;DHT22;61650;48.882;2.092;2022-11-20T02:44:03;4.30;85.80
51559;DHT22;61650;48.882;2.092;2022-11-20T02:46:29;4.30;85.60
51559;DHT22;61650;48.882;2.092;2022-11-20T02:48:55;4.30;85.80
51559;DHT22;61650;48.882;2.092;2022-11-20T02:51:21;4.30;85.70
51559;DHT22;61650;48.882;2.092;2022-11-20T02:53:47;4.30;85.70
51559;DHT22;61650;48.882;2.092;2022-11-20T02:56:13;4.30;85.80
51559;DHT22;61650;48.882;2.092;2022-11-20T02:58:39;4.30;85.60
51559;DHT22;61650;48.882;2.092;2022-11-20T03:01:04;4.30;85.90
51559;DHT22;61650;48.882;2.092;2022-11-20T03:03:30;4.30;85.70
51559;DHT22;61650;48.882;2.092;2022-11-20T03:05:58;4.30;85.80
51559;DHT22;61650;48.882;2.092;2022-11-20T03:08:23;4.30;85.70
51559;DHT22;61650;48.882;2.092;2022-11-20T03:10:49;4.30;85.80
51559;DHT22;61650;48.882;2.092;2022-11-20T03:13:14;4.30;85.80
51559;DHT22;61650;48.882;2.092;2022-11-20T03:15:40;4.30;85.70
51559;DHT22;61650;48.882;2.092;2022-11-20T03:18:05;4.30;85.80
51559;DHT22;61650;48.882;2.092;2022-11-20T03:20:32;4.30;85.80
51559;DHT22;61650;48.882;2.092;2022-11-20T03:22:58;4.30;86.00
51559;DHT22;61650;48.882;2.092;2022-11-20T03:25:24;4.30;85.80
51559;DHT22;61650;48.882;2.092;2022-11-20T03:27:49;4.30;85.70
51559;DHT22;61650;48.882;2.092;2022-11-20T03:30:15;4.30;86.00
51559;DHT22;61650;48.882;2.092;2022-11-20T03:32:41;4.30;85.90
51559;DHT22;61650;48.882;2.092;2022-11-20T03:35:07;4.20;86.10
51559;DHT22;61650;48.882;2.092;2022-11-20T03:37:32;4.30;86.20
51559;DHT22;61650;48.882;2.092;2022-11-20T03:39:58;4.30;86.10
51559;DHT22;61650;48.882;2.092;2022-11-20T03:42:24;4.30;86.00
51559;DHT22;61650;48.882;2.092;2022-11-20T03:45:17;4.40;85.90
51559;DHT22;61650;48.882;2.092;2022-11-20T03:47:44;4.40;85.80
51559;DHT22;61650;48.882;2.092;2022-11-20T03:50:10;4.40;86.00
51559;DHT22;61650;48.882;2.092;2022-11-20T03:52:38;4.50;86.00
51559;DHT22;61650;48.882;2.092;2022-11-20T03:55:04;4.50;85.90
51559;DHT22;61650;48.882;2.092;2022-11-20T03:57:30;4.50;85.70
51559;DHT22;61650;48.882;2.092;2022-11-20T03:59:56;4.60;85.50
51559;DHT22;61650;48.882;2.092;2022-11-20T04:02:22;4.60;85.60
51559;DHT22;61650;48.882;2.092;2022-11-20T04:04:47;4.60;85.40
51559;DHT22;61650;48.882;2.092;2022-11-20T04:07:13;4.60;85.70
51559;DHT22;61650;48.882;2.092;2022-11-20T04:09:38;4.60;85.40
51559;DHT22;61650;48.882;2.092;2022-11-20T04:12:04;4.60;85.60
51559;DHT22;61650;48.882;2.092;2022-11-20T04:14:30;4.60;85.50
51559;DHT22;61650;48.882;2.092;2022-11-20T04:16:55;4.60;85.70
51559;DHT22;61650;48.882;2.092;2022-11-20T04:19:21;4.60;85.70
51559;DHT22;61650;48.882;2.092;2022-11-20T04:21:46;4.60;85.80
51559;DHT22;61650;48.882;2.092;2022-11-20T04:24:12;4.50;86.10
51559;DHT22;61650;48.882;2.092;2022-11-20T04:26:38;4.50;86.30
51559;DHT22;61650;48.882;2.092;2022-11-20T04:29:04;4.40;86.40
51559;DHT22;61650;48.882;2.092;2022-11-20T04:31:32;4.40;86.50
51559;DHT22;61650;48.882;2.092;2022-11-20T04:34:03;4.40;86.70
51559;DHT22;61650;48.882;2.092;2022-11-20T04:36:30;4.30;86.70
51559;DHT22;61650;48.882;2.092;2022-11-20T04:38:57;4.30;87.00
51559;DHT22;61650;48.882;2.092;2022-11-20T04:41:26;4.20;87.10
51559;DHT22;61650;48.882;2.092;2022-11-20T04:43:54;4.20;87.40
51559;DHT22;61650;48.882;2.092;2022-11-20T04:46:25;4.20;87.20
51559;DHT22;61650;48.882;2.092;2022-11-20T04:48:51;4.20;87.30
51559;DHT22;61650;48.882;2.092;2022-11-20T04:51:17;4.10;87.50
51559;DHT22;61650;48.882;2.092;2022-11-20T04:53:43;4.10;87.70
51559;DHT22;61650;48.882;2.092;2022-11-20T04:56:11;4.10;87.60
51559;DHT22;61650;48.882;2.092;2022-11-20T04:58:37;4.20;87.50
51559;DHT22;61650;48.882;2.092;2022-11-20T05:01:18;4.20;87.60
51559;DHT22;61650;48.882;2.092;2022-11-20T05:03:44;4.20;87.40
51559;DHT22;61650;48.882;2.092;2022-11-20T05:06:12;4.20;87.40
51559;DHT22;61650;48.882;2.092;2022-11-20T05:08:37;4.20;87.50
51559;DHT22;61650;48.882;2.092;2022-11-20T05:11:05;4.20;87.40
51559;DHT22;61650;48.882;2.092;2022-11-20T05:13:32;4.20;87.50
51559;DHT22;61650;48.882;2.092;2022-11-20T05:16:05;4.20;87.60
51559;DHT22;61650;48.882;2.092;2022-11-20T05:18:31;4.20;87.40
51559;DHT22;61650;48.882;2.092;2022-11-20T05:20:57;4.20;87.70
51559;DHT22;61650;48.882;2.092;2022-11-20T05:23:24;4.10;87.90
51559;DHT22;61650;48.882;2.092;2022-11-20T05:25:52;4.10;88.10
51559;DHT22;61650;48.882;2.092;2022-11-20T05:28:18;4.10;88.10
51559;DHT22;61650;48.882;2.092;2022-11-20T05:30:44;4.20;87.70
51559;DHT22;61650;48.882;2.092;2022-11-20T05:33:09;4.20;87.70
51559;DHT22;61650;48.882;2.092;2022-11-20T05:35:35;4.20;87.60
51559;DHT22;61650;48.882;2.092;2022-11-20T05:38:00;4.20;87.60
51559;DHT22;61650;48.882;2.092;2022-11-20T05:40:26;4.20;87.70
51559;DHT22;61650;48.882;2.092;2022-11-20T05:42:51;4.10;87.70
51559;DHT22;61650;48.882;2.092;2022-11-20T05:45:17;4.10;87.70
51559;DHT22;61650;48.882;2.092;2022-11-20T05:47:42;4.20;87.40
51559;DHT22;61650;48.882;2.092;2022-11-20T05:50:08;4.20;87.30
51559;DHT22;61650;48.882;2.092;2022-11-20T05:52:34;4.20;87.40
51559;DHT22;61650;48.882;2.092;2022-11-20T05:54:59;4.20;87.30
51559;DHT22;61650;48.882;2.092;2022-11-20T05:57:25;4.20;87.30
51559;DHT22;61650;48.882;2.092;2022-11-20T05:59:50;4.30;86.90
51559;DHT22;61650;48.882;2.092;2022-11-20T06:02:16;4.30;86.80
51559;DHT22;61650;48.882;2.092;2022-11-20T06:04:42;4.40;86.80
51559;DHT22;61650;48.882;2.092;2022-11-20T06:07:07;4.40;86.60
51559;DHT22;61650;48.882;2.092;2022-11-20T06:09:33;4.40;86.40
51559;DHT22;61650;48.882;2.092;2022-11-20T06:11:58;4.30;86.60
51559;DHT22;61650;48.882;2.092;2022-11-20T06:14:24;4.30;86.50
51559;DHT22;61650;48.882;2.092;2022-11-20T06:16:49;4.30;86.70
51559;DHT22;61650;48.882;2.092;2022-11-20T06:19:15;4.30;86.60
51559;DHT22;61650;48.882;2.092;2022-11-20T06:21:41;4.30;86.60
51559;DHT22;61650;48.882;2.092;2022-11-20T06:24:08;4.40;86.40
51559;DHT22;61650;48.882;2.092;2022-11-20T06:26:34;4.50;86.10
51559;DHT22;61650;48.882;2.092;2022-11-20T06:29:00;4.50;85.70
51559;DHT22;61650;48.882;2.092;2022-11-20T06:31:26;4.60;85.50
51559;DHT22;61650;48.882;2.092;2022-11-20T06:33:52;4.70;85.30
51559;DHT22;61650;48.882;2.092;2022-11-20T06:36:19;4.70;85.30
51559;DHT22;61650;48.882;2.092;2022-11-20T06:38:45;4.70;84.80
51559;DHT22;61650;48.882;2.092;2022-11-20T06:41:21;4.80;84.80
51559;DHT22;61650;48.882;2.092;2022-11-20T06:43:47;4.80;84.80
51559;DHT22;61650;48.882;2.092;2022-11-20T06:46:14;4.90;84.60
51559;DHT22;61650;48.882;2.092;2022-11-20T06:48:40;4.90;84.50
51559;DHT22;61650;48.882;2.092;2022-11-20T06:51:07;5.00;84.20
51559;DHT22;61650;48.882;2.092;2022-11-20T06:53:34;5.00;84.00
51559;DHT22;61650;48.882;2.092;2022-11-20T06:55:59;5.10;83.40
51559;DHT22;61650;48.882;2.092;2022-11-20T06:58:29;5.20;83.00
51559;DHT22;61650;48.882;2.092;2022-11-20T07:01:06;5.20;82.30
51559;DHT22;61650;48.882;2.092;2022-11-20T07:03:32;5.30;82.10
51559;DHT22;61650;48.882;2.092;2022-11-20T07:06:00;5.30;81.80
51559;DHT22;61650;48.882;2.092;2022-11-20T07:08:26;5.30;81.60
51559;DHT22;61650;48.882;2.092;2022-11-20T07:10:51;5.40;81.10
51559;DHT22;61650;48.882;2.092;2022-11-20T07:13:17;5.40;81.30
51559;DHT22;61650;48.882;2.092;2022-11-20T07:15:42;5.40;81.60
51559;DHT22;61650;48.882;2.092;2022-11-20T07:18:08;5.40;81.10
51559;DHT22;61650;48.882;2.092;2022-11-20T07:20:34;5.40;81.10
51559;DHT22;61650;48.882;2.092;2022-11-20T07:22:59;5.40;81.60
51559;DHT22;61650;48.882;2.092;2022-11-20T07:25:26;5.40;81.00
51559;DHT22;61650;48.882;2.092;2022-11-20T07:27:52;5.40;80.60
51559;DHT22;61650;48.882;2.092;2022-11-20T07:30:18;5.50;80.70
51559;DHT22;61650;48.882;2.092;2022-11-20T07:32:47;5.50;80.10
51559;DHT22;61650;48.882;2.092;2022-11-20T07:35:15;5.50;80.90
51559;DHT22;61650;48.882;2.092;2022-11-20T07:37:41;5.50;80.30
51559;DHT22;61650;48.882;2.092;2022-11-20T07:40:06;5.50;81.00
51559;DHT22;61650;48.882;2.092;2022-11-20T07:42:35;5.50;79.90
51559;DHT22;61650;48.882;2.092;2022-11-20T07:45:01;5.50;79.70
51559;DHT22;61650;48.882;2.092;2022-11-20T07:47:26;5.60;79.40
51559;DHT22;61650;48.882;2.092;2022-11-20T07:49:52;5.70;79.40
51559;DHT22;61650;48.882;2.092;2022-11-20T07:52:17;5.80;79.40
51559;DHT22;61650;48.882;2.092;2022-11-20T07:54:43;5.90;78.20
51559;DHT22;61650;48.882;2.092;2022-11-20T07:57:09;5.90;78.70
51559;DHT22;61650;48.882;2.092;2022-11-20T07:59:34;6.00;77.90
51559;DHT22;61650;48.882;2.092;2022-11-20T08:02:00;6.00;77.90
51559;DHT22;61650;48.882;2.092;2022-11-20T08:04:25;6.10;79.10
51559;DHT22;61650;48.882;2.092;2022-11-20T08:06:54;6.10;78.00
51559;DHT22;61650;48.882;2.092;2022-11-20T08:09:20;6.10;77.50
51559;DHT22;61650;48.882;2.092;2022-11-20T08:11:45;6.20;77.70
51559;DHT22;61650;48.882;2.092;2022-11-20T08:14:29;6.20;78.20
51559;DHT22;61650;48.882;2.092;2022-11-20T08:16:55;6.30;78.40
51559;DHT22;61650;48.882;2.092;2022-11-20T08:19:20;6.30;77.70
51559;DHT22;61650;48.882;2.092;2022-11-20T08:21:46;6.30;77.30
51559;DHT22;61650;48.882;2.092;2022-11-20T08:24:12;6.30;78.20
51559;DHT22;61650;48.882;2.092;2022-11-20T08:26:39;6.40;79.00
51559;DHT22;61650;48.882;2.092;2022-11-20T08:29:05;6.40;79.30
51559;DHT22;61650;48.882;2.092;2022-11-20T08:31:31;6.20;80.60
51559;DHT22;61650;48.882;2.092;2022-11-20T08:33:57;6.10;82.50
51559;DHT22;61650;48.882;2.092;2022-11-20T08:36:23;6.00;81.80
51559;DHT22;61650;48.882;2.092;2022-11-20T08:38:51;6.00;83.00
51559;DHT22;61650;48.882;2.092;2022-11-20T08:41:17;6.00;83.40
51559;DHT22;61650;48.882;2.092;2022-11-20T08:43:49;6.10;82.90
51559;DHT22;61650;48.882;2.092;2022-11-20T08:46:16;6.10;82.70
51559;DHT22;61650;48.882;2.092;2022-11-20T08:48:41;6.20;82.50
51559;DHT22;61650;48.882;2.092;2022-11-20T08:51:07;6.20;83.70
51559;DHT22;61650;48.882;2.092;2022-11-20T08:53:33;6.30;83.80
51559;DHT22;61650;48.882;2.092;2022-11-20T08:55:59;6.20;83.40
51559;DHT22;61650;48.882;2.092;2022-11-20T08:58:25;6.20;85.20
51559;DHT22;61650;48.882;2.092;2022-11-20T09:00:51;6.10;86.20
51559;DHT22;61650;48.882;2.092;2022-11-20T09:03:16;6.00;88.10
51559;DHT22;61650;48.882;2.092;2022-11-20T09:05:42;5.90;88.40
51559;DHT22;61650;48.882;2.092;2022-11-20T09:08:08;5.80;90.40
51559;DHT22;61650;48.882;2.092;2022-11-20T09:10:33;5.70;90.70
51559;DHT22;61650;48.882;2.092;2022-11-20T09:12:59;5.80;92.20
51559;DHT22;61650;48.882;2.092;2022-11-20T09:15:25;5.80;92.50
51559;DHT22;61650;48.882;2.092;2022-11-20T09:17:55;5.80;92.60
51559;DHT22;61650;48.882;2.092;2022-11-20T09:20:21;5.70;92.80
51559;DHT22;61650;48.882;2.092;2022-11-20T09:22:46;5.80;93.60
51559;DHT22;61650;48.882;2.092;2022-11-20T09:25:12;5.80;93.10
51559;DHT22;61650;48.882;2.092;2022-11-20T09:27:38;5.80;93.60
51559;DHT22;61650;48.882;2.092;2022-11-20T09:30:04;5.80;93.40
51559;DHT22;61650;48.882;2.092;2022-11-20T09:32:30;5.80;92.80
51559;DHT22;61650;48.882;2.092;2022-11-20T09:34:55;5.90;92.80
51559;DHT22;61650;48.882;2.092;2022-11-20T09:37:21;5.90;93.00
51559;DHT22;61650;48.882;2.092;2022-11-20T09:39:46;5.90;92.20
51559;DHT22;61650;48.882;2.092;2022-11-20T09:42:42;6.00;92.90
51559;DHT22;61650;48.882;2.092;2022-11-20T09:55:45;6.00;94.10
51559;DHT22;61650;48.882;2.092;2022-11-20T10:00:58;6.00;94.10
51559;DHT22;61650;48.882;2.092;2022-11-20T10:04:11;6.10;94.70
51559;DHT22;61650;48.882;2.092;2022-11-20T10:07:02;6.10;94.80
51559;DHT22;61650;48.882;2.092;2022-11-20T10:09:36;6.20;95.00
51559;DHT22;61650;48.882;2.092;2022-11-20T10:15:00;6.40;94.70
51559;DHT22;61650;48.882;2.092;2022-11-20T10:26:16;6.60;93.50
51559;DHT22;61650;48.882;2.092;2022-11-20T10:29:05;6.70;93.60
51559;DHT22;61650;48.882;2.092;2022-11-20T10:31:35;6.80;93.30
51559;DHT22;61650;48.882;2.092;2022-11-20T10:34:28;6.90;93.10
51559;DHT22;61650;48.882;2.092;2022-11-20T10:36:58;7.00;92.50
51559;DHT22;61650;48.882;2.092;2022-11-20T10:39:35;7.10;93.10
51559;DHT22;61650;48.882;2.092;2022-11-20T10:42:01;7.20;91.80
51559;DHT22;61650;48.882;2.092;2022-11-20T10:44:28;7.20;91.50
51559;DHT22;61650;48.882;2.092;2022-11-20T10:47:17;7.20;91.60
51559;DHT22;61650;48.882;2.092;2022-11-20T10:49:46;7.10;92.50
51559;DHT22;61650;48.882;2.092;2022-11-20T10:52:49;7.20;92.10
51559;DHT22;61650;48.882;2.092;2022-11-20T10:58:16;7.20;93.60
51559;DHT22;61650;48.882;2.092;2022-11-20T11:00:45;7.20;93.00
51559;DHT22;61650;48.882;2.092;2022-11-20T11:03:23;7.20;93.00
51559;DHT22;61650;48.882;2.092;2022-11-20T11:05:56;7.20;92.50
51559;DHT22;61650;48.882;2.092;2022-11-20T11:08:28;7.20;92.90
51559;DHT22;61650;48.882;2.092;2022-11-20T11:11:00;7.20;93.40
51559;DHT22;61650;48.882;2.092;2022-11-20T11:13:29;7.30;92.10
51559;DHT22;61650;48.882;2.092;2022-11-20T11:15:55;7.20;93.30
51559;DHT22;61650;48.882;2.092;2022-11-20T11:18:27;7.20;92.90
51559;DHT22;61650;48.882;2.092;2022-11-20T11:20:54;7.20;93.40
51559;DHT22;61650;48.882;2.092;2022-11-20T11:23:34;7.20;92.80
51559;DHT22;61650;48.882;2.092;2022-11-20T11:26:02;7.20;93.50
51559;DHT22;61650;48.882;2.092;2022-11-20T11:28:28;7.30;93.00
51559;DHT22;61650;48.882;2.092;2022-11-20T11:30:55;7.30;92.40
51559;DHT22;61650;48.882;2.092;2022-11-20T11:33:49;7.30;92.30
51559;DHT22;61650;48.882;2.092;2022-11-20T11:36:22;7.30;91.30
51559;DHT22;61650;48.882;2.092;2022-11-20T11:38:52;7.40;90.90
51559;DHT22;61650;48.882;2.092;2022-11-20T11:41:25;7.40;91.40
51559;DHT22;61650;48.882;2.092;2022-11-20T11:43:59;7.40;91.00
51559;DHT22;61650;48.882;2.092;2022-11-20T11:46:52;7.40;90.70
51559;DHT22;61650;48.882;2.092;2022-11-20T11:49:20;7.30;90.90
51559;DHT22;61650;48.882;2.092;2022-11-20T11:54:39;7.30;90.30
51559;DHT22;61650;48.882;2.092;2022-11-20T12:00:08;7.10;92.30
51559;DHT22;61650;48.882;2.092;2022-11-20T12:10:33;7.10;93.20
51559;DHT22;61650;48.882;2.092;2022-11-20T12:15:55;7.30;91.80
51559;DHT22;61650;48.882;2.092;2022-11-20T12:18:22;7.30;91.50
51559;DHT22;61650;48.882;2.092;2022-11-20T12:32:01;7.60;91.70
51559;DHT22;61650;48.882;2.092;2022-11-20T12:37:35;7.40;93.40
51559;DHT22;61650;48.882;2.092;2022-11-20T12:49:04;7.20;96.50
51559;DHT22;61650;48.882;2.092;2022-11-20T13:05:23;7.40;98.10
51559;DHT22;61650;48.882;2.092;2022-11-20T13:07:52;7.50;98.10
51559;DHT22;61650;48.882;2.092;2022-11-20T13:10:36;7.60;98.00
51559;DHT22;61650;48.882;2.092;2022-11-20T13:15:54;7.70;97.70
51559;DHT22;61650;48.882;2.092;2022-11-20T13:18:21;7.70;97.40
51559;DHT22;61650;48.882;2.092;2022-11-20T13:20:47;7.80;97.50
51559;DHT22;61650;48.882;2.092;2022-11-20T13:23:35;7.90;97.80
51559;DHT22;61650;48.882;2.092;2022-11-20T13:26:22;7.90;97.80
51559;DHT22;61650;48.882;2.092;2022-11-20T13:29:00;8.00;96.80
51559;DHT22;61650;48.882;2.092;2022-11-20T13:31:30;8.00;96.80
51559;DHT22;61650;48.882;2.092;2022-11-20T13:33:57;8.10;96.60
51559;DHT22;61650;48.882;2.092;2022-11-20T13:36:26;8.20;96.10
51559;DHT22;61650;48.882;2.092;2022-11-20T13:38:54;8.20;96.20
51559;DHT22;61650;48.882;2.092;2022-11-20T13:41:30;8.30;95.90
51559;DHT22;61650;48.882;2.092;2022-11-20T13:44:35;8.30;95.70
51559;DHT22;61650;48.882;2.092;2022-11-20T13:47:03;8.40;95.80
51559;DHT22;61650;48.882;2.092;2022-11-20T13:49:37;8.50;96.40
51559;DHT22;61650;48.882;2.092;2022-11-20T14:02:41;8.70;95.00
51559;DHT22;61650;48.882;2.092;2022-11-20T14:05:22;8.80;94.50
51559;DHT22;61650;48.882;2.092;2022-11-20T14:07:49;8.90;93.70
51559;DHT22;61650;48.882;2.092;2022-11-20T14:10:27;8.90;93.80
51559;DHT22;61650;48.882;2.092;2022-11-20T14:12:53;9.00;94.30
51559;DHT22;61650;48.882;2.092;2022-11-20T14:17:52;9.80;89.20
51559;DHT22;61650;48.882;2.092;2022-11-20T14:20:18;9.30;90.70
51559;DHT22;61650;48.882;2.092;2022-11-20T14:22:52;9.10;92.40
51559;DHT22;61650;48.882;2.092;2022-11-20T14:27:46;8.90;93.40
51559;DHT22;61650;48.882;2.092;2022-11-20T14:30:24;9.00;93.70
51559;DHT22;61650;48.882;2.092;2022-11-20T14:32:52;9.20;93.30
51559;DHT22;61650;48.882;2.092;2022-11-20T14:35:26;9.30;93.60
51559;DHT22;61650;48.882;2.092;2022-11-20T14:37:52;9.40;93.10
51559;DHT22;61650;48.882;2.092;2022-11-20T14:42:52;9.30;92.50
51559;DHT22;61650;48.882;2.092;2022-11-20T14:45:18;9.20;92.80
51559;DHT22;61650;48.882;2.092;2022-11-20T14:47:44;9.20;92.30
51559;DHT22;61650;48.882;2.092;2022-11-20T14:50:21;9.10;92.60
51559;DHT22;61650;48.882;2.092;2022-11-20T14:52:58;9.10;92.90
51559;DHT22;61650;48.882;2.092;2022-11-20T14:55:36;9.10;93.90
51559;DHT22;61650;48.882;2.092;2022-11-20T14:58:20;9.10;92.90
51559;DHT22;61650;48.882;2.092;2022-11-20T15:00:58;9.10;92.60
51559;DHT22;61650;48.882;2.092;2022-11-20T15:03:36;9.20;91.20
51559;DHT22;61650;48.882;2.092;2022-11-20T15:06:02;9.20;91.30
51559;DHT22;61650;48.882;2.092;2022-11-20T15:08:28;9.20;91.60
51559;DHT22;61650;48.882;2.092;2022-11-20T15:10:54;9.20;92.20
51559;DHT22;61650;48.882;2.092;2022-11-20T15:13:32;9.20;90.10
51559;DHT22;61650;48.882;2.092;2022-11-20T15:16:02;9.20;89.50
51559;DHT22;61650;48.882;2.092;2022-11-20T15:18:32;9.20;88.10
51559;DHT22;61650;48.882;2.092;2022-11-20T15:21:03;9.20;86.80
51559;DHT22;61650;48.882;2.092;2022-11-20T15:23:29;9.20;87.10
51559;DHT22;61650;48.882;2.092;2022-11-20T15:25:55;9.20;86.20
51559;DHT22;61650;48.882;2.092;2022-11-20T15:28:31;9.00;87.10
51559;DHT22;61650;48.882;2.092;2022-11-20T15:30:57;8.90;87.00
51559;DHT22;61650;48.882;2.092;2022-11-20T15:33:22;8.80;88.60
51559;DHT22;61650;48.882;2.092;2022-11-20T15:35:48;8.70;86.60
51559;DHT22;61650;48.882;2.092;2022-11-20T15:38:14;8.50;86.80
51559;DHT22;61650;48.882;2.092;2022-11-20T15:40:40;8.40;86.40
51559;DHT22;61650;48.882;2.092;2022-11-20T15:43:05;8.40;83.20
51559;DHT22;61650;48.882;2.092;2022-11-20T15:45:44;8.30;83.60
51559;DHT22;61650;48.882;2.092;2022-11-20T15:48:20;8.20;83.70
51559;DHT22;61650;48.882;2.092;2022-11-20T15:51:17;8.10;85.10
51559;DHT22;61650;48.882;2.092;2022-11-20T15:53:46;7.90;86.50
51559;DHT22;61650;48.882;2.092;2022-11-20T15:56:12;7.90;84.70
51559;DHT22;61650;48.882;2.092;2022-11-20T15:58:39;7.90;84.10
51559;DHT22;61650;48.882;2.092;2022-11-20T16:01:05;7.90;85.90
51559;DHT22;61650;48.882;2.092;2022-11-20T16:03:31;7.80;84.80
51559;DHT22;61650;48.882;2.092;2022-11-20T16:05:56;7.80;86.20
51559;DHT22;61650;48.882;2.092;2022-11-20T16:08:22;7.70;86.40
51559;DHT22;61650;48.882;2.092;2022-11-20T16:10:47;7.60;87.20
51559;DHT22;61650;48.882;2.092;2022-11-20T16:13:15;7.60;87.10
51559;DHT22;61650;48.882;2.092;2022-11-20T16:16:02;7.50;87.40
51559;DHT22;61650;48.882;2.092;2022-11-20T16:18:30;7.40;89.10
51559;DHT22;61650;48.882;2.092;2022-11-20T16:20:57;7.30;89.50
51559;DHT22;61650;48.882;2.092;2022-11-20T16:23:23;7.20;90.20
51559;DHT22;61650;48.882;2.092;2022-11-20T16:25:51;7.10;91.20
51559;DHT22;61650;48.882;2.092;2022-11-20T16:28:17;7.00;90.70
51559;DHT22;61650;48.882;2.092;2022-11-20T16:30:43;7.10;90.30
51559;DHT22;61650;48.882;2.092;2022-11-20T16:33:15;7.10;90.30
51559;DHT22;61650;48.882;2.092;2022-11-20T16:35:41;7.20;90.00
51559;DHT22;61650;48.882;2.092;2022-11-20T16:38:06;7.20;89.60
51559;DHT22;61650;48.882;2.092;2022-11-20T16:40:32;7.20;89.00
51559;DHT22;61650;48.882;2.092;2022-11-20T16:43:07;7.10;89.20
51559;DHT22;61650;48.882;2.092;2022-11-20T16:45:33;7.10;90.00
51559;DHT22;61650;48.882;2.092;2022-11-20T16:47:59;7.00;89.90
51559;DHT22;61650;48.882;2.092;2022-11-20T16:50:24;6.90;90.10
51559;DHT22;61650;48.882;2.092;2022-11-20T16:52:50;6.90;90.00
51559;DHT22;61650;48.882;2.092;2022-11-20T16:55:16;6.90;90.40
51559;DHT22;61650;48.882;2.092;2022-11-20T16:57:41;6.90;90.20
51559;DHT22;61650;48.882;2.092;2022-11-20T17:00:07;6.80;90.20
51559;DHT22;61650;48.882;2.092;2022-11-20T17:02:33;6.80;90.30
51559;DHT22;61650;48.882;2.092;2022-11-20T17:04:59;6.80;90.40
51559;DHT22;61650;48.882;2.092;2022-11-20T17:07:24;6.80;90.60
51559;DHT22;61650;48.882;2.092;2022-11-20T17:09:50;6.80;90.80
51559;DHT22;61650;48.882;2.092;2022-11-20T17:12:15;6.70;90.40
51559;DHT22;61650;48.882;2.092;2022-11-20T17:14:41;6.70;90.40
51559;DHT22;61650;48.882;2.092;2022-11-20T17:17:06;6.60;90.50
51559;DHT22;61650;48.882;2.092;2022-11-20T17:19:32;6.60;90.50
51559;DHT22;61650;48.882;2.092;2022-11-20T17:21:58;6.60;90.80
51559;DHT22;61650;48.882;2.092;2022-11-20T17:24:23;6.50;90.70
51559;DHT22;61650;48.882;2.092;2022-11-20T17:26:49;6.50;90.60
51559;DHT22;61650;48.882;2.092;2022-11-20T17:29:17;6.50;90.70
51559;DHT22;61650;48.882;2.092;2022-11-20T17:31:43;6.50;90.80
51559;DHT22;61650;48.882;2.092;2022-11-20T17:34:13;6.40;90.80
51559;DHT22;61650;48.882;2.092;2022-11-20T17:36:39;6.40;91.10
51559;DHT22;61650;48.882;2.092;2022-11-20T17:39:17;6.40;90.90
51559;DHT22;61650;48.882;2.092;2022-11-20T17:41:44;6.40;90.90
51559;DHT22;61650;48.882;2.092;2022-11-20T17:44:10;6.30;91.10
51559;DHT22;61650;48.882;2.092;2022-11-20T17:46:37;6.30;91.10